createdAt,value
2018-12-31T00:00:46.397Z,8.96
2018-12-31T00:01:46.402Z,8.99
2018-12-31T00:02:46.411Z,9.02
2018-12-31T00:03:46.421Z,9.01
2018-12-31T00:04:46.436Z,9.01
2018-12-31T00:05:46.453Z,8.96
2018-12-31T00:06:46.463Z,8.99
2018-12-31T00:07:46.474Z,9.01
2018-12-31T00:08:46.499Z,9.05
2018-12-31T00:09:46.503Z,9.04
2018-12-31T00:10:46.508Z,9.02
2018-12-31T00:11:46.524Z,9.05
2018-12-31T00:12:46.527Z,9.04
2018-12-31T00:13:46.540Z,9.05
2018-12-31T00:14:46.552Z,9.02
2018-12-31T00:15:46.564Z,9.14
2018-12-31T00:16:46.599Z,9.10
2018-12-31T00:17:46.592Z,9.04
2018-12-31T00:18:46.612Z,9.13
2018-12-31T00:19:46.620Z,9.04
2018-12-31T00:20:46.623Z,9.02
2018-12-31T00:21:46.681Z,9.08
2018-12-31T00:22:46.651Z,9.13
2018-12-31T00:23:46.662Z,9.10
2018-12-31T00:24:46.742Z,9.11
2018-12-31T00:25:47.063Z,9.08
2018-12-31T00:26:46.700Z,9.10
2018-12-31T00:27:46.712Z,9.08
2018-12-31T00:28:46.722Z,9.11
2018-12-31T00:29:46.739Z,9.05
2018-12-31T00:30:47.044Z,9.04
2018-12-31T00:31:46.766Z,9.11
2018-12-31T00:32:46.767Z,9.08
2018-12-31T00:33:46.779Z,9.11
2018-12-31T00:34:46.791Z,9.05
2018-12-31T00:35:46.804Z,9.11
2018-12-31T00:36:46.849Z,9.11
2018-12-31T00:37:46.832Z,9.10
2018-12-31T00:38:46.838Z,9.04
2018-12-31T00:39:46.853Z,9.08
2018-12-31T00:40:46.895Z,9.02
2018-12-31T00:41:46.883Z,9.01
2018-12-31T00:42:46.891Z,9.10
2018-12-31T00:43:46.900Z,9.05
2018-12-31T00:44:46.911Z,9.10
2018-12-31T00:45:46.927Z,9.10
2018-12-31T00:46:46.936Z,9.02
2018-12-31T00:47:46.948Z,9.01
2018-12-31T00:48:47.021Z,9.04
2018-12-31T00:49:46.977Z,8.99
2018-12-31T00:50:47.000Z,9.13
2018-12-31T00:51:46.998Z,9.13
2018-12-31T00:52:47.012Z,9.08
2018-12-31T00:53:47.022Z,9.11
2018-12-31T00:54:47.034Z,9.10
2018-12-31T00:55:47.045Z,9.04
2018-12-31T00:56:47.063Z,9.01
2018-12-31T00:57:47.072Z,9.01
2018-12-31T00:58:47.077Z,9.02
2018-12-31T00:59:47.094Z,9.10
2018-12-31T01:00:47.119Z,9.10
2018-12-31T01:01:47.117Z,9.08
2018-12-31T01:02:47.136Z,9.11
2018-12-31T01:03:47.140Z,9.08
2018-12-31T01:04:47.157Z,9.14
2018-12-31T01:05:47.167Z,9.11
2018-12-31T01:06:47.178Z,9.11
2018-12-31T01:07:47.188Z,9.10
2018-12-31T01:08:47.200Z,9.08
2018-12-31T01:09:47.217Z,9.08
2018-12-31T01:10:47.243Z,9.08
2018-12-31T01:11:47.372Z,9.11
2018-12-31T01:12:47.321Z,9.08
2018-12-31T01:13:47.278Z,9.13
2018-12-31T01:14:47.273Z,9.08
2018-12-31T01:15:47.287Z,9.10
2018-12-31T01:16:47.299Z,9.10
2018-12-31T01:17:47.309Z,9.10
2018-12-31T01:18:47.328Z,9.13
2018-12-31T01:19:47.336Z,9.13
2018-12-31T01:20:47.360Z,9.13
2018-12-31T01:21:47.357Z,9.14
2018-12-31T01:22:47.376Z,9.05
2018-12-31T01:23:47.385Z,9.17
2018-12-31T01:24:47.395Z,9.08
2018-12-31T01:25:47.407Z,9.21
2018-12-31T01:26:47.443Z,9.15
2018-12-31T01:27:47.440Z,9.17
2018-12-31T01:28:47.441Z,9.13
2018-12-31T01:29:47.458Z,9.05
2018-12-31T01:30:47.472Z,9.04
2018-12-31T01:31:47.485Z,9.13
2018-12-31T01:32:47.544Z,9.11
2018-12-31T01:33:47.506Z,9.13
2018-12-31T01:34:47.516Z,9.08
2018-12-31T01:35:47.527Z,9.11
2018-12-31T01:36:47.565Z,9.13
2018-12-31T01:37:47.549Z,9.15
2018-12-31T01:38:47.564Z,9.24
2018-12-31T01:39:47.578Z,9.18
2018-12-31T01:40:47.587Z,9.17
2018-12-31T01:41:47.598Z,9.13
2018-12-31T01:42:47.618Z,9.20
2018-12-31T01:43:47.700Z,9.11
2018-12-31T01:44:47.658Z,9.13
2018-12-31T01:45:47.656Z,9.14
2018-12-31T01:46:47.655Z,9.18
2018-12-31T01:47:47.683Z,9.24
2018-12-31T01:48:47.684Z,9.28
2018-12-31T01:49:47.696Z,9.21
2018-12-31T01:50:47.707Z,9.23
2018-12-31T01:51:47.721Z,9.23
2018-12-31T01:52:47.734Z,9.26
2018-12-31T01:53:47.767Z,9.23
2018-12-31T01:54:47.756Z,9.24
2018-12-31T01:55:47.768Z,9.24
2018-12-31T01:56:47.780Z,9.31
2018-12-31T01:57:47.796Z,9.33
2018-12-31T01:58:47.807Z,9.15
2018-12-31T01:59:47.821Z,9.23
2018-12-31T02:00:47.831Z,9.31
2018-12-31T02:01:47.840Z,9.24
2018-12-31T02:02:47.853Z,9.29
2018-12-31T02:03:47.879Z,9.26
2018-12-31T02:04:47.873Z,9.28
2018-12-31T02:05:47.886Z,9.24
2018-12-31T02:06:48.003Z,9.28
2018-12-31T02:07:47.916Z,9.29
2018-12-31T02:08:47.929Z,9.26
2018-12-31T02:09:47.938Z,9.32
2018-12-31T02:10:47.973Z,9.33
2018-12-31T02:11:47.983Z,9.31
2018-12-31T02:12:47.972Z,9.39
2018-12-31T02:13:47.989Z,9.36
2018-12-31T02:14:48.012Z,9.26
2018-12-31T02:15:48.016Z,9.35
2018-12-31T02:16:48.021Z,9.38
2018-12-31T02:17:48.031Z,9.38
2018-12-31T02:18:48.049Z,9.38
2018-12-31T02:19:48.060Z,9.38
2018-12-31T02:20:48.069Z,9.39
2018-12-31T02:21:48.118Z,9.38
2018-12-31T02:22:48.095Z,9.38
2018-12-31T02:23:48.105Z,9.43
2018-12-31T02:24:48.135Z,9.35
2018-12-31T02:25:48.129Z,9.38
2018-12-31T02:26:48.144Z,9.38
2018-12-31T02:27:48.153Z,9.43
2018-12-31T02:28:48.166Z,9.39
2018-12-31T02:29:48.174Z,9.38
2018-12-31T02:30:48.180Z,9.46
2018-12-31T02:31:48.211Z,9.46
2018-12-31T02:32:48.208Z,9.39
2018-12-31T02:33:48.221Z,9.47
2018-12-31T02:34:48.228Z,9.43
2018-12-31T02:35:48.243Z,9.39
2018-12-31T02:36:48.255Z,9.46
2018-12-31T02:37:48.273Z,9.43
2018-12-31T02:38:48.280Z,9.39
2018-12-31T02:39:48.301Z,9.40
2018-12-31T02:40:48.306Z,9.50
2018-12-31T02:41:48.316Z,9.46
2018-12-31T02:42:48.339Z,9.36
2018-12-31T02:43:48.349Z,9.40
2018-12-31T02:44:48.357Z,9.50
2018-12-31T02:45:48.363Z,9.46
2018-12-31T02:46:48.377Z,9.50
2018-12-31T02:47:48.390Z,9.47
2018-12-31T02:48:48.398Z,9.50
2018-12-31T02:49:48.412Z,9.48
2018-12-31T02:50:48.425Z,9.50
2018-12-31T02:51:48.439Z,9.54
2018-12-31T02:52:48.448Z,9.50
2018-12-31T02:53:48.461Z,9.53
2018-12-31T02:54:48.486Z,9.58
2018-12-31T02:55:48.486Z,9.58
2018-12-31T02:56:48.502Z,9.58
2018-12-31T02:57:48.518Z,9.48
2018-12-31T02:58:48.528Z,9.53
2018-12-31T02:59:48.540Z,9.56
2018-12-31T03:00:48.552Z,9.53
2018-12-31T03:01:48.557Z,9.53
2018-12-31T03:02:48.674Z,9.51
2018-12-31T03:03:48.590Z,9.51
2018-12-31T03:04:48.599Z,9.53
2018-12-31T03:05:48.611Z,9.58
2018-12-31T03:06:48.622Z,9.48
2018-12-31T03:07:48.634Z,9.46
2018-12-31T03:08:48.644Z,9.51
2018-12-31T03:09:48.655Z,9.51
2018-12-31T03:10:48.668Z,9.54
2018-12-31T03:11:48.679Z,9.42
2018-12-31T03:12:48.695Z,9.51
2018-12-31T03:13:48.705Z,9.48
2018-12-31T03:14:48.719Z,9.54
2018-12-31T03:15:48.733Z,9.38
2018-12-31T03:16:48.792Z,9.54
2018-12-31T03:17:48.758Z,9.51
2018-12-31T03:18:48.764Z,9.58
2018-12-31T03:19:48.778Z,9.50
2018-12-31T03:20:48.796Z,9.53
2018-12-31T03:21:48.811Z,9.50
2018-12-31T03:22:48.817Z,9.50
2018-12-31T03:23:48.829Z,9.51
2018-12-31T03:24:48.843Z,9.58
2018-12-31T03:25:48.858Z,9.50
2018-12-31T03:26:48.862Z,9.38
2018-12-31T03:27:48.884Z,9.51
2018-12-31T03:28:48.890Z,9.54
2018-12-31T03:29:48.900Z,9.51
2018-12-31T03:30:48.914Z,9.57
2018-12-31T03:31:48.925Z,9.53
2018-12-31T03:32:48.938Z,9.51
2018-12-31T03:33:48.952Z,9.53
2018-12-31T03:34:48.958Z,9.50
2018-12-31T03:35:48.969Z,9.51
2018-12-31T03:36:48.988Z,9.53
2018-12-31T03:37:49.055Z,9.51
2018-12-31T03:38:49.008Z,9.50
2018-12-31T03:39:49.017Z,9.50
2018-12-31T03:40:49.052Z,9.57
2018-12-31T03:41:49.042Z,9.50
2018-12-31T03:42:49.067Z,9.68
2018-12-31T03:43:49.069Z,9.48
2018-12-31T03:44:49.083Z,9.58
2018-12-31T03:45:49.092Z,9.58
2018-12-31T03:46:49.160Z,9.58
2018-12-31T03:47:49.116Z,9.58
2018-12-31T03:48:49.130Z,9.57
2018-12-31T03:49:49.141Z,9.61
2018-12-31T03:50:49.160Z,9.56
2018-12-31T03:51:49.180Z,9.57
2018-12-31T03:52:49.181Z,9.56
2018-12-31T03:53:49.193Z,9.56
2018-12-31T03:54:49.207Z,9.57
2018-12-31T03:55:49.221Z,9.61
2018-12-31T03:56:50.477Z,9.56
2018-12-31T03:57:49.240Z,9.66
2018-12-31T03:58:49.252Z,9.66
2018-12-31T03:59:49.366Z,9.65
2018-12-31T04:00:49.276Z,9.64
2018-12-31T04:01:49.289Z,9.68
2018-12-31T04:02:49.303Z,9.68
2018-12-31T04:03:49.314Z,9.68
2018-12-31T04:04:49.332Z,9.69
2018-12-31T04:05:49.337Z,9.72
2018-12-31T04:06:49.405Z,9.68
2018-12-31T04:07:53.212Z,9.68
2018-12-31T04:08:49.376Z,9.68
2018-12-31T04:09:49.391Z,9.65
2018-12-31T04:10:49.399Z,9.66
2018-12-31T04:11:49.411Z,9.71
2018-12-31T04:12:49.418Z,9.71
2018-12-31T04:13:49.436Z,9.71
2018-12-31T04:14:49.448Z,9.71
2018-12-31T04:15:49.461Z,9.72
2018-12-31T04:16:49.477Z,9.74
2018-12-31T04:17:49.481Z,9.74
2018-12-31T04:18:49.497Z,9.75
2018-12-31T04:19:49.509Z,9.68
2018-12-31T04:20:49.520Z,9.76
2018-12-31T04:21:49.532Z,9.72
2018-12-31T04:22:49.551Z,9.75
2018-12-31T04:23:49.567Z,9.83
2018-12-31T04:24:49.567Z,9.75
2018-12-31T04:25:49.588Z,9.81
2018-12-31T04:26:49.592Z,9.84
2018-12-31T04:27:49.604Z,9.83
2018-12-31T04:28:49.623Z,9.81
2018-12-31T04:29:49.629Z,9.78
2018-12-31T04:30:49.642Z,9.81
2018-12-31T04:31:49.652Z,9.76
2018-12-31T04:32:49.665Z,9.76
2018-12-31T04:33:49.678Z,9.81
2018-12-31T04:34:49.688Z,9.81
2018-12-31T04:35:49.702Z,9.76
2018-12-31T04:36:49.721Z,9.76
2018-12-31T04:37:49.730Z,9.84
2018-12-31T04:38:49.741Z,9.75
2018-12-31T04:39:49.747Z,9.83
2018-12-31T04:40:49.763Z,9.74
2018-12-31T04:41:49.772Z,9.69
2018-12-31T04:42:49.798Z,9.81
2018-12-31T04:43:49.798Z,9.79
2018-12-31T04:44:49.814Z,9.79
2018-12-31T04:45:49.823Z,9.79
2018-12-31T04:46:49.840Z,9.81
2018-12-31T04:47:49.844Z,9.81
2018-12-31T04:48:49.858Z,9.84
2018-12-31T04:49:49.871Z,9.86
2018-12-31T04:50:49.882Z,9.76
2018-12-31T04:51:49.895Z,9.72
2018-12-31T04:52:49.906Z,9.81
2018-12-31T04:53:49.922Z,9.78
2018-12-31T04:54:49.934Z,9.79
2018-12-31T04:55:49.951Z,9.76
2018-12-31T04:56:49.959Z,9.83
2018-12-31T04:57:49.969Z,9.79
2018-12-31T04:58:49.981Z,9.76
2018-12-31T04:59:50.041Z,9.87
2018-12-31T05:00:50.007Z,9.79
2018-12-31T05:01:50.020Z,9.79
2018-12-31T05:02:50.036Z,9.76
2018-12-31T05:03:50.046Z,9.78
2018-12-31T05:04:50.062Z,9.71
2018-12-31T05:05:50.068Z,9.78
2018-12-31T05:06:50.082Z,9.81
2018-12-31T05:07:50.094Z,9.84
2018-12-31T05:08:50.106Z,9.84
2018-12-31T05:09:50.117Z,9.78
2018-12-31T05:10:50.129Z,9.76
2018-12-31T05:11:50.147Z,9.81
2018-12-31T05:12:50.168Z,9.74
2018-12-31T05:13:50.165Z,9.78
2018-12-31T05:14:50.179Z,9.72
2018-12-31T05:15:50.195Z,9.76
2018-12-31T05:16:50.203Z,9.79
2018-12-31T05:17:50.216Z,9.83
2018-12-31T05:18:50.232Z,9.78
2018-12-31T05:19:50.241Z,9.76
2018-12-31T05:20:50.251Z,9.76
2018-12-31T05:21:50.267Z,9.79
2018-12-31T05:22:50.275Z,9.89
2018-12-31T05:23:50.290Z,9.79
2018-12-31T05:24:50.300Z,9.81
2018-12-31T05:25:50.318Z,9.76
2018-12-31T05:26:50.328Z,9.91
2018-12-31T05:27:50.340Z,9.87
2018-12-31T05:28:50.352Z,9.79
2018-12-31T05:29:50.363Z,9.91
2018-12-31T05:30:50.378Z,9.83
2018-12-31T05:31:50.388Z,9.87
2018-12-31T05:32:50.404Z,9.90
2018-12-31T05:33:50.415Z,9.97
2018-12-31T05:34:50.451Z,9.90
2018-12-31T05:35:50.441Z,9.86
2018-12-31T05:36:50.451Z,9.87
2018-12-31T05:37:50.463Z,9.90
2018-12-31T05:38:50.478Z,9.89
2018-12-31T05:39:50.496Z,9.87
2018-12-31T05:40:50.498Z,9.90
2018-12-31T05:41:50.516Z,9.97
2018-12-31T05:42:50.525Z,9.89
2018-12-31T05:43:50.536Z,9.94
2018-12-31T05:44:50.554Z,9.87
2018-12-31T05:45:50.565Z,9.93
2018-12-31T05:46:50.574Z,9.89
2018-12-31T05:47:50.586Z,9.94
2018-12-31T05:48:50.598Z,9.94
2018-12-31T05:49:50.611Z,9.96
2018-12-31T05:50:50.637Z,9.93
2018-12-31T05:51:50.635Z,9.90
2018-12-31T05:52:50.652Z,9.94
2018-12-31T05:53:50.667Z,9.97
2018-12-31T05:54:50.669Z,9.89
2018-12-31T05:55:50.687Z,9.91
2018-12-31T05:56:50.698Z,9.96
2018-12-31T05:57:50.711Z,9.90
2018-12-31T05:58:50.719Z,9.84
2018-12-31T05:59:50.734Z,9.87
2018-12-31T06:00:50.749Z,9.91
2018-12-31T06:01:50.760Z,9.93
2018-12-31T06:02:50.774Z,9.94
2018-12-31T06:03:50.781Z,9.94
2018-12-31T06:04:50.818Z,9.90
2018-12-31T06:05:50.809Z,9.93
2018-12-31T06:06:50.820Z,9.97
2018-12-31T06:07:50.834Z,9.96
2018-12-31T06:08:50.859Z,10.02
2018-12-31T06:09:50.858Z,9.99
2018-12-31T06:10:50.868Z,9.91
2018-12-31T06:11:50.881Z,10.01
2018-12-31T06:12:50.893Z,9.99
2018-12-31T06:13:50.912Z,9.99
2018-12-31T06:14:50.918Z,9.97
2018-12-31T06:15:50.928Z,9.89
2018-12-31T06:16:50.944Z,10.01
2018-12-31T06:17:50.956Z,9.94
2018-12-31T06:18:50.970Z,10.01
2018-12-31T06:19:50.981Z,9.93
2018-12-31T06:20:50.993Z,10.02
2018-12-31T06:21:51.007Z,9.97
2018-12-31T06:22:51.019Z,9.93
2018-12-31T06:23:51.034Z,9.96
2018-12-31T06:24:51.045Z,10.02
2018-12-31T06:25:51.052Z,9.99
2018-12-31T06:26:51.067Z,9.94
2018-12-31T06:27:51.125Z,9.89
2018-12-31T06:28:51.089Z,9.94
2018-12-31T06:29:51.108Z,9.91
2018-12-31T06:30:51.113Z,9.99
2018-12-31T06:31:51.128Z,9.94
2018-12-31T06:32:51.139Z,9.93
2018-12-31T06:33:51.157Z,9.97
2018-12-31T06:34:51.168Z,9.93
2018-12-31T06:35:51.178Z,9.94
2018-12-31T06:36:51.189Z,9.97
2018-12-31T06:37:51.201Z,9.94
2018-12-31T06:38:51.215Z,9.94
2018-12-31T06:39:51.227Z,9.94
2018-12-31T06:40:51.239Z,9.93
2018-12-31T06:41:51.256Z,9.91
2018-12-31T06:42:51.305Z,9.94
2018-12-31T06:43:51.277Z,9.96
2018-12-31T06:44:51.290Z,9.94
2018-12-31T06:45:51.300Z,10.02
2018-12-31T06:46:51.309Z,9.97
2018-12-31T06:47:51.322Z,9.91
2018-12-31T06:48:51.335Z,9.93
2018-12-31T06:49:51.350Z,10.05
2018-12-31T06:50:51.358Z,9.90
2018-12-31T06:51:51.374Z,9.94
2018-12-31T06:52:51.399Z,10.01
2018-12-31T06:53:51.397Z,10.07
2018-12-31T06:54:51.410Z,10.05
2018-12-31T06:55:51.423Z,10.11
2018-12-31T06:56:51.431Z,10.05
2018-12-31T06:57:51.447Z,10.08
2018-12-31T06:58:51.460Z,10.08
2018-12-31T06:59:51.470Z,10.02
2018-12-31T07:00:51.484Z,9.97
2018-12-31T07:01:51.496Z,10.04
2018-12-31T07:02:51.506Z,9.99
2018-12-31T07:03:51.521Z,9.99
2018-12-31T07:04:51.533Z,9.99
2018-12-31T07:05:51.546Z,10.01
2018-12-31T07:06:51.557Z,9.93
2018-12-31T07:07:51.575Z,10.09
2018-12-31T07:08:51.580Z,10.05
2018-12-31T07:09:51.600Z,10.05
2018-12-31T07:10:51.606Z,10.08
2018-12-31T07:11:51.621Z,9.94
2018-12-31T07:12:51.638Z,10.02
2018-12-31T07:13:51.645Z,10.04
2018-12-31T07:14:51.661Z,9.96
2018-12-31T07:15:51.667Z,9.94
2018-12-31T07:16:51.677Z,10.01
2018-12-31T07:17:51.693Z,9.96
2018-12-31T07:18:51.707Z,9.93
2018-12-31T07:19:51.717Z,9.94
2018-12-31T07:20:51.727Z,9.99
2018-12-31T07:21:51.744Z,9.97
2018-12-31T07:22:51.751Z,9.97
2018-12-31T07:23:51.765Z,9.94
2018-12-31T07:24:51.777Z,9.96
2018-12-31T07:25:51.790Z,9.96
2018-12-31T07:26:51.808Z,10.02
2018-12-31T07:27:51.813Z,9.97
2018-12-31T07:28:51.824Z,10.04
2018-12-31T07:29:51.873Z,9.94
2018-12-31T07:30:51.847Z,10.01
2018-12-31T07:31:51.862Z,9.99
2018-12-31T07:32:51.877Z,9.94
2018-12-31T07:33:51.887Z,9.93
2018-12-31T07:34:51.898Z,9.96
2018-12-31T07:35:51.908Z,9.97
2018-12-31T07:36:51.921Z,10.01
2018-12-31T07:37:51.936Z,9.93
2018-12-31T07:38:51.958Z,10.02
2018-12-31T07:39:51.955Z,10.04
2018-12-31T07:40:51.973Z,10.05
2018-12-31T07:41:51.982Z,10.01
2018-12-31T07:42:52.009Z,10.02
2018-12-31T07:43:52.006Z,10.09
2018-12-31T07:44:52.020Z,9.96
2018-12-31T07:45:52.029Z,10.02
2018-12-31T07:46:52.114Z,10.02
2018-12-31T07:47:52.053Z,9.99
2018-12-31T07:48:52.068Z,9.99
2018-12-31T07:49:52.081Z,9.99
2018-12-31T07:50:52.095Z,9.97
2018-12-31T07:51:52.110Z,9.94
2018-12-31T07:52:52.122Z,9.93
2018-12-31T07:53:52.129Z,9.96
2018-12-31T07:54:52.141Z,9.94
2018-12-31T07:55:52.155Z,10.01
2018-12-31T07:56:52.166Z,9.94
2018-12-31T07:57:52.280Z,9.94
2018-12-31T07:58:52.190Z,9.96
2018-12-31T07:59:52.203Z,9.94
2018-12-31T08:00:52.249Z,9.99
2018-12-31T08:01:52.229Z,9.90
2018-12-31T08:02:52.239Z,9.97
2018-12-31T08:03:52.252Z,9.96
2018-12-31T08:04:52.266Z,10.04
2018-12-31T08:05:52.280Z,10.01
2018-12-31T08:06:52.311Z,9.91
2018-12-31T08:07:52.302Z,9.94
2018-12-31T08:08:52.466Z,9.93
2018-12-31T08:09:52.325Z,9.97
2018-12-31T08:10:52.339Z,10.05
2018-12-31T08:11:52.652Z,10.01
2018-12-31T08:12:52.377Z,10.07
2018-12-31T08:13:52.386Z,10.05
2018-12-31T08:14:52.392Z,10.09
2018-12-31T08:15:52.400Z,10.08
2018-12-31T08:16:52.418Z,10.04
2018-12-31T08:17:52.431Z,10.08
2018-12-31T08:18:52.441Z,10.08
2018-12-31T08:19:52.450Z,10.11
2018-12-31T08:20:52.466Z,10.12
2018-12-31T08:21:52.485Z,10.04
2018-12-31T08:22:52.490Z,10.02
2018-12-31T08:23:52.502Z,10.04
2018-12-31T08:24:52.518Z,10.11
2018-12-31T08:25:52.525Z,9.99
2018-12-31T08:26:52.541Z,10.08
2018-12-31T08:27:52.553Z,9.99
2018-12-31T08:28:52.563Z,10.05
2018-12-31T08:29:52.580Z,10.17
2018-12-31T08:30:52.634Z,10.04
2018-12-31T08:31:52.599Z,10.08
2018-12-31T08:32:52.612Z,9.99
2018-12-31T08:33:52.626Z,10.05
2018-12-31T08:34:52.636Z,10.07
2018-12-31T08:35:52.658Z,10.11
2018-12-31T08:36:52.662Z,10.18
2018-12-31T08:37:52.674Z,10.18
2018-12-31T08:38:52.690Z,10.15
2018-12-31T08:39:52.707Z,10.12
2018-12-31T08:40:52.712Z,10.14
2018-12-31T08:41:52.728Z,10.23
2018-12-31T08:42:52.747Z,10.11
2018-12-31T08:43:52.751Z,10.15
2018-12-31T08:44:52.764Z,10.22
2018-12-31T08:45:52.778Z,10.25
2018-12-31T08:46:52.791Z,10.18
2018-12-31T08:47:52.801Z,10.22
2018-12-31T08:48:52.816Z,10.17
2018-12-31T08:49:52.827Z,10.25
2018-12-31T08:50:52.841Z,10.20
2018-12-31T08:51:52.853Z,10.22
2018-12-31T08:52:52.867Z,10.14
2018-12-31T08:53:52.876Z,10.14
2018-12-31T08:54:52.903Z,10.22
2018-12-31T08:55:52.903Z,10.25
2018-12-31T08:56:52.914Z,10.27
2018-12-31T08:57:52.938Z,10.18
2018-12-31T08:58:52.939Z,10.18
2018-12-31T08:59:52.955Z,10.17
2018-12-31T09:00:52.968Z,10.18
2018-12-31T09:01:52.978Z,10.15
2018-12-31T09:02:52.994Z,10.18
2018-12-31T09:03:53.007Z,10.18
2018-12-31T09:04:53.017Z,10.29
2018-12-31T09:05:53.034Z,10.23
2018-12-31T09:06:53.043Z,10.23
2018-12-31T09:07:53.054Z,10.27
2018-12-31T09:08:53.066Z,10.25
2018-12-31T09:09:53.082Z,10.26
2018-12-31T09:10:53.100Z,10.27
2018-12-31T09:11:53.111Z,10.26
2018-12-31T09:12:53.126Z,10.29
2018-12-31T09:13:53.131Z,10.29
2018-12-31T09:14:53.173Z,10.29
2018-12-31T09:15:53.155Z,10.26
2018-12-31T09:16:53.175Z,10.33
2018-12-31T09:17:53.182Z,10.27
2018-12-31T09:18:53.195Z,10.25
2018-12-31T09:19:53.203Z,10.23
2018-12-31T09:20:53.221Z,10.20
2018-12-31T09:21:53.231Z,10.30
2018-12-31T09:22:53.243Z,10.27
2018-12-31T09:23:53.270Z,10.27
2018-12-31T09:24:53.271Z,10.26
2018-12-31T09:25:53.283Z,10.26
2018-12-31T09:26:53.295Z,10.34
2018-12-31T09:27:53.306Z,10.34
2018-12-31T09:28:53.321Z,10.36
2018-12-31T09:29:53.334Z,10.44
2018-12-31T09:30:53.353Z,10.38
2018-12-31T09:31:53.370Z,10.38
2018-12-31T09:32:53.371Z,10.40
2018-12-31T09:33:53.387Z,10.36
2018-12-31T09:34:53.425Z,10.36
2018-12-31T09:35:53.411Z,10.36
2018-12-31T09:36:53.424Z,10.40
2018-12-31T09:37:53.435Z,10.32
2018-12-31T09:38:53.447Z,10.42
2018-12-31T09:39:53.459Z,10.36
2018-12-31T09:40:53.474Z,10.40
2018-12-31T09:41:53.548Z,10.40
2018-12-31T09:42:53.504Z,10.44
2018-12-31T09:43:53.514Z,10.44
2018-12-31T09:44:53.529Z,10.41
2018-12-31T09:45:53.542Z,10.41
2018-12-31T09:46:53.554Z,10.36
2018-12-31T09:47:53.564Z,10.42
2018-12-31T09:48:53.612Z,10.41
2018-12-31T09:49:53.593Z,10.45
2018-12-31T09:50:53.609Z,10.45
2018-12-31T09:51:53.635Z,10.44
2018-12-31T09:52:53.630Z,10.40
2018-12-31T09:53:53.644Z,10.41
2018-12-31T09:54:53.654Z,10.36
2018-12-31T09:55:53.669Z,10.42
2018-12-31T09:56:53.680Z,10.40
2018-12-31T09:57:53.693Z,10.38
2018-12-31T09:58:53.704Z,10.40
2018-12-31T09:59:53.721Z,10.44
2018-12-31T10:00:53.733Z,10.48
2018-12-31T10:01:53.748Z,10.45
2018-12-31T10:02:53.774Z,10.48
2018-12-31T10:03:53.771Z,10.53
2018-12-31T10:04:53.784Z,10.47
2018-12-31T10:05:53.800Z,10.45
2018-12-31T10:06:53.807Z,10.45
2018-12-31T10:07:53.824Z,10.45
2018-12-31T10:08:53.839Z,10.45
2018-12-31T10:09:53.864Z,10.51
2018-12-31T10:10:53.883Z,10.60
2018-12-31T10:11:53.878Z,10.47
2018-12-31T10:12:53.897Z,10.59
2018-12-31T10:13:53.923Z,10.64
2018-12-31T10:14:54.574Z,10.63
2018-12-31T10:15:53.942Z,10.52
2018-12-31T10:16:53.950Z,10.45
2018-12-31T10:17:53.971Z,10.51
2018-12-31T10:18:53.989Z,10.56
2018-12-31T10:19:53.988Z,10.60
2018-12-31T10:20:54.008Z,10.59
2018-12-31T10:21:54.041Z,10.61
2018-12-31T10:22:54.018Z,10.60
2018-12-31T10:23:54.150Z,10.60
2018-12-31T10:24:54.119Z,10.60
2018-12-31T10:25:54.058Z,10.73
2018-12-31T10:26:54.070Z,10.64
2018-12-31T10:27:54.086Z,10.68
2018-12-31T10:28:54.214Z,10.61
2018-12-31T10:29:54.115Z,10.61
2018-12-31T10:30:54.163Z,10.56
2018-12-31T10:31:54.134Z,10.60
2018-12-31T10:32:54.159Z,10.63
2018-12-31T10:33:54.157Z,10.59
2018-12-31T10:34:54.168Z,10.64
2018-12-31T10:35:54.182Z,10.64
2018-12-31T10:36:54.206Z,10.68
2018-12-31T10:37:54.580Z,10.74
2018-12-31T10:38:54.268Z,10.73
2018-12-31T10:39:54.355Z,10.67
2018-12-31T10:40:54.257Z,10.64
2018-12-31T10:41:54.262Z,10.63
2018-12-31T10:42:54.355Z,10.64
2018-12-31T10:43:54.291Z,10.68
2018-12-31T10:44:54.326Z,10.74
2018-12-31T10:45:54.677Z,10.68
2018-12-31T10:46:54.338Z,10.67
2018-12-31T10:47:54.375Z,10.64
2018-12-31T10:48:54.356Z,10.63
2018-12-31T10:49:54.377Z,10.67
2018-12-31T10:50:54.384Z,10.71
2018-12-31T10:51:54.389Z,10.63
2018-12-31T10:52:54.494Z,10.71
2018-12-31T10:53:54.709Z,10.73
2018-12-31T10:54:54.526Z,10.78
2018-12-31T10:55:54.440Z,10.71
2018-12-31T10:56:54.834Z,10.71
2018-12-31T10:57:54.475Z,10.73
2018-12-31T10:58:54.472Z,10.71
2018-12-31T10:59:54.486Z,10.73
2018-12-31T11:00:54.495Z,10.74
2018-12-31T11:01:54.514Z,10.79
2018-12-31T11:02:54.525Z,10.67
2018-12-31T11:03:54.537Z,10.73
2018-12-31T11:04:54.851Z,10.71
2018-12-31T11:05:54.561Z,10.81
2018-12-31T11:06:54.573Z,10.79
2018-12-31T11:07:54.584Z,10.78
2018-12-31T11:08:54.604Z,10.70
2018-12-31T11:09:54.816Z,10.73
2018-12-31T11:10:54.639Z,10.74
2018-12-31T11:11:54.733Z,10.82
2018-12-31T11:12:54.649Z,10.84
2018-12-31T11:13:54.664Z,10.92
2018-12-31T11:14:54.678Z,10.82
2018-12-31T11:15:54.828Z,10.91
2018-12-31T11:16:54.724Z,10.97
2018-12-31T11:17:56.578Z,10.91
2018-12-31T11:19:54.746Z,10.97
2018-12-31T11:20:54.765Z,10.94
2018-12-31T11:21:54.770Z,10.99
2018-12-31T11:22:54.779Z,10.96
2018-12-31T11:23:54.795Z,10.94
2018-12-31T11:24:54.822Z,11.03
2018-12-31T11:25:54.986Z,10.91
2018-12-31T11:26:54.835Z,10.97
2018-12-31T11:27:55.362Z,10.97
2018-12-31T11:28:54.869Z,10.97
2018-12-31T11:29:54.873Z,10.91
2018-12-31T11:30:54.885Z,10.92
2018-12-31T11:31:55.214Z,10.94
2018-12-31T11:32:54.908Z,11.02
2018-12-31T11:33:54.925Z,10.97
2018-12-31T11:34:54.934Z,11.03
2018-12-31T11:35:54.947Z,11.07
2018-12-31T11:36:54.961Z,10.99
2018-12-31T11:37:54.973Z,10.91
2018-12-31T11:38:54.984Z,11.02
2018-12-31T11:39:55.002Z,11.04
2018-12-31T11:40:55.016Z,11.04
2018-12-31T11:41:55.027Z,11.06
2018-12-31T11:42:55.041Z,11.06
2018-12-31T11:43:55.071Z,10.97
2018-12-31T11:44:55.067Z,11.02
2018-12-31T11:45:55.594Z,10.91
2018-12-31T11:46:55.125Z,11.02
2018-12-31T11:47:55.150Z,10.97
2018-12-31T11:48:55.118Z,11.06
2018-12-31T11:49:55.137Z,10.96
2018-12-31T11:50:55.247Z,10.96
2018-12-31T11:51:55.235Z,10.96
2018-12-31T11:52:55.167Z,10.92
2018-12-31T11:53:55.185Z,10.88
2018-12-31T11:54:55.200Z,10.99
2018-12-31T11:55:55.209Z,10.99
2018-12-31T11:56:55.224Z,10.92
2018-12-31T11:57:55.234Z,10.97
2018-12-31T11:58:55.249Z,11.00
2018-12-31T11:59:55.264Z,11.04
2018-12-31T12:00:55.279Z,11.10
2018-12-31T12:01:55.772Z,11.11
2018-12-31T12:02:55.297Z,11.09
2018-12-31T12:03:55.313Z,11.07
2018-12-31T12:04:55.328Z,11.10
2018-12-31T12:05:55.358Z,11.06
2018-12-31T12:06:55.353Z,11.09
2018-12-31T12:07:55.374Z,11.09
2018-12-31T12:08:55.424Z,11.06
2018-12-31T12:10:55.406Z,11.03
2018-12-31T12:12:55.430Z,11.04
2018-12-31T12:13:55.445Z,11.03
2018-12-31T12:14:55.465Z,11.11
2018-12-31T12:15:57.365Z,10.92
2018-12-31T12:16:55.530Z,10.97
2018-12-31T12:17:55.556Z,10.96
2018-12-31T12:18:55.509Z,10.99
2018-12-31T12:20:55.550Z,11.02
2018-12-31T12:21:55.553Z,11.02
2018-12-31T12:22:55.558Z,10.89
2018-12-31T12:23:56.011Z,10.99
2018-12-31T12:24:55.586Z,10.96
2018-12-31T12:25:55.673Z,10.97
2018-12-31T12:26:55.609Z,11.03
2018-12-31T12:27:55.625Z,10.91
2018-12-31T12:28:55.684Z,10.97
2018-12-31T12:29:55.680Z,10.96
2018-12-31T12:30:55.721Z,10.99
2018-12-31T12:31:55.679Z,11.10
2018-12-31T12:32:55.693Z,11.06
2018-12-31T12:33:55.707Z,11.06
2018-12-31T12:34:55.735Z,11.15
2018-12-31T12:35:56.201Z,11.11
2018-12-31T12:37:55.751Z,11.14
2018-12-31T12:38:56.117Z,11.15
2018-12-31T12:39:55.780Z,11.11
2018-12-31T12:41:55.933Z,11.09
2018-12-31T12:42:55.826Z,11.10
2018-12-31T12:43:55.828Z,11.18
2018-12-31T12:44:55.894Z,11.11
2018-12-31T12:45:55.867Z,11.09
2018-12-31T12:46:55.874Z,11.04
2018-12-31T12:47:55.905Z,11.10
2018-12-31T12:48:55.898Z,10.92
2018-12-31T12:49:55.919Z,10.92
2018-12-31T12:50:55.922Z,11.04
2018-12-31T12:51:55.936Z,11.14
2018-12-31T12:52:56.079Z,11.06
2018-12-31T12:53:56.030Z,11.00
2018-12-31T12:54:56.087Z,11.02
2018-12-31T12:55:56.099Z,10.92
2018-12-31T12:56:56.054Z,11.04
2018-12-31T12:57:56.028Z,10.92
2018-12-31T12:58:56.027Z,11.06
2018-12-31T12:59:56.082Z,10.91
2018-12-31T13:00:56.087Z,11.00
2018-12-31T13:01:56.420Z,11.00
2018-12-31T13:02:56.075Z,11.03
2018-12-31T13:03:56.090Z,11.06
2018-12-31T13:05:03.365Z,11.06
2018-12-31T13:05:56.115Z,10.96
2018-12-31T13:06:56.142Z,11.07
2018-12-31T13:07:56.145Z,10.92
2018-12-31T13:08:56.157Z,11.04
2018-12-31T13:09:56.179Z,11.06
2018-12-31T13:10:56.183Z,11.07
2018-12-31T13:11:56.269Z,11.10
2018-12-31T13:12:56.208Z,11.09
2018-12-31T13:13:56.221Z,11.06